createdAt,value
2023-09-03T00:02:14.176Z,0.50
2023-09-03T00:04:41.572Z,0.30
2023-09-03T00:07:09.726Z,0.60
2023-09-03T00:09:36.819Z,0.38
2023-09-03T00:12:05.161Z,0.30
2023-09-03T00:14:32.560Z,0.30
2023-09-03T00:17:00.085Z,0.50
2023-09-03T00:19:27.538Z,0.40
2023-09-03T00:21:54.534Z,0.40
2023-09-03T00:24:21.371Z,0.25
2023-09-03T00:26:48.369Z,0.63
2023-09-03T00:29:15.231Z,0.40
2023-09-03T00:31:42.195Z,0.40
2023-09-03T00:34:09.096Z,0.50
2023-09-03T00:36:36.534Z,0.32
2023-09-03T00:39:03.498Z,0.33
2023-09-03T00:41:31.066Z,0.40
2023-09-03T00:43:59.570Z,0.25
2023-09-03T00:46:28.162Z,0.32
2023-09-03T00:48:55.806Z,0.20
2023-09-03T00:51:24.405Z,0.40
2023-09-03T00:53:55.559Z,0.30
2023-09-03T00:56:23.394Z,0.40
2023-09-03T00:58:50.599Z,0.40
2023-09-03T01:01:20.942Z,0.40
2023-09-03T01:03:48.456Z,0.30
2023-09-03T01:06:15.493Z,0.38
2023-09-03T01:08:43.206Z,0.35
2023-09-03T01:11:30.304Z,0.28
2023-09-03T01:14:25.233Z,0.30
2023-09-03T01:16:55.134Z,0.47
2023-09-03T01:19:34.052Z,0.30
2023-09-03T01:22:38.627Z,0.32
2023-09-03T01:25:23.724Z,0.45
2023-09-03T01:28:03.858Z,0.20
2023-09-03T01:30:32.158Z,0.23
2023-09-03T01:32:59.902Z,0.20
2023-09-03T01:35:29.005Z,0.30
2023-09-03T01:37:55.900Z,0.30
2023-09-03T01:40:22.917Z,0.35
2023-09-03T01:42:49.854Z,0.23
2023-09-03T01:45:18.106Z,0.25
2023-09-03T01:48:00.759Z,0.50
2023-09-03T01:50:47.795Z,0.22
2023-09-03T01:53:27.810Z,0.30
2023-09-03T01:55:56.133Z,0.27
2023-09-03T01:58:26.783Z,0.30
2023-09-03T02:00:56.390Z,0.30
2023-09-03T02:03:26.156Z,0.30
2023-09-03T02:05:53.185Z,0.45
2023-09-03T02:08:20.373Z,0.30
2023-09-03T02:10:47.755Z,0.40
2023-09-03T02:13:14.729Z,0.22
2023-09-03T02:15:41.704Z,0.30
2023-09-03T02:18:09.432Z,0.30
2023-09-03T02:20:36.390Z,0.30
2023-09-03T02:23:05.271Z,0.35
2023-09-03T02:25:32.173Z,0.22
2023-09-03T02:28:02.133Z,0.30
2023-09-03T02:30:29.164Z,0.20
2023-09-03T02:32:56.215Z,0.27
2023-09-03T02:35:23.216Z,0.30
2023-09-03T02:37:50.254Z,0.20
2023-09-03T02:40:19.892Z,0.30
2023-09-03T02:42:46.908Z,0.17
2023-09-03T02:45:13.903Z,0.30
2023-09-03T02:47:40.854Z,0.30
2023-09-03T02:50:08.335Z,0.20
2023-09-03T02:52:35.414Z,0.40
2023-09-03T02:55:02.361Z,0.40
2023-09-03T02:57:29.321Z,0.50
2023-09-03T02:59:56.264Z,0.30
2023-09-03T03:02:23.440Z,0.20
2023-09-03T03:04:50.427Z,0.20
2023-09-03T03:07:18.491Z,0.30
2023-09-03T03:09:50.639Z,0.20
2023-09-03T03:12:18.097Z,0.28
2023-09-03T03:14:45.064Z,0.30
2023-09-03T03:17:12.275Z,0.38
2023-09-03T03:19:39.296Z,0.50
2023-09-03T03:22:06.458Z,0.40
2023-09-03T03:24:33.467Z,0.43
2023-09-03T03:27:01.222Z,0.28
2023-09-03T03:29:28.213Z,0.68
2023-09-03T03:31:55.189Z,0.40
2023-09-03T03:34:22.420Z,0.33
2023-09-03T03:36:55.020Z,0.20
2023-09-03T03:39:21.974Z,0.30
2023-09-03T03:41:49.203Z,0.38
2023-09-03T03:44:18.137Z,0.20
2023-09-03T03:46:45.876Z,0.30
2023-09-03T03:49:12.756Z,0.30
2023-09-03T03:51:39.711Z,0.30
2023-09-03T03:54:06.697Z,0.30
2023-09-03T03:56:35.574Z,0.30
2023-09-03T03:59:03.012Z,0.30
2023-09-03T04:01:30.823Z,0.40
2023-09-03T04:03:57.894Z,0.47
2023-09-03T04:06:24.965Z,0.45
2023-09-03T04:08:51.860Z,0.35
2023-09-03T04:11:20.337Z,0.30
2023-09-03T04:13:47.294Z,0.55
2023-09-03T04:16:16.170Z,0.52
2023-09-03T04:18:46.129Z,0.28
2023-09-03T04:21:13.909Z,0.30
2023-09-03T04:23:41.063Z,0.30
2023-09-03T04:26:09.618Z,0.40
2023-09-03T04:28:41.288Z,0.57
2023-09-03T04:31:08.429Z,0.40
2023-09-03T04:33:37.444Z,0.95
2023-09-03T04:36:06.304Z,0.50
2023-09-03T04:38:36.183Z,0.63
2023-09-03T04:41:06.935Z,0.40
2023-09-03T04:44:08.218Z,0.60
2023-09-03T04:46:39.303Z,0.40
2023-09-03T04:49:06.904Z,0.33
2023-09-03T04:51:33.818Z,0.60
2023-09-03T04:54:00.791Z,0.45
2023-09-03T04:56:27.833Z,0.30
2023-09-03T04:58:55.071Z,0.40
2023-09-03T05:01:24.291Z,0.70
2023-09-03T05:03:55.740Z,0.60
2023-09-03T05:06:23.631Z,0.30
2023-09-03T05:08:52.983Z,0.70
2023-09-03T05:11:21.058Z,0.52
2023-09-03T05:13:49.573Z,0.40
2023-09-03T05:16:17.910Z,0.38
2023-09-03T05:18:45.359Z,0.60
2023-09-03T05:21:13.044Z,0.50
2023-09-03T05:23:40.178Z,0.68
2023-09-03T05:26:07.952Z,0.47
2023-09-03T05:28:37.716Z,0.45
2023-09-03T05:31:04.769Z,0.50
2023-09-03T05:33:33.091Z,0.30
2023-09-03T05:36:00.159Z,0.35
2023-09-03T05:38:27.160Z,0.50
2023-09-03T05:40:55.324Z,0.50
2023-09-03T05:43:24.275Z,0.50
2023-09-03T05:45:54.673Z,0.50
2023-09-03T05:48:23.127Z,0.43
2023-09-03T05:50:59.025Z,0.37
2023-09-03T05:53:29.742Z,0.50
2023-09-03T05:56:11.761Z,0.60
2023-09-03T05:58:42.369Z,0.65
2023-09-03T06:01:12.753Z,0.47
2023-09-03T06:03:41.474Z,0.40
2023-09-03T06:06:12.026Z,0.40
2023-09-03T06:08:39.867Z,0.40
2023-09-03T06:11:07.066Z,0.38
2023-09-03T06:13:34.600Z,0.40
2023-09-03T06:16:01.603Z,0.60
2023-09-03T06:18:28.810Z,0.50
2023-09-03T06:20:55.957Z,0.40
2023-09-03T06:23:22.860Z,0.50
2023-09-03T06:25:51.793Z,0.52
2023-09-03T06:28:18.678Z,0.53
2023-09-03T06:30:45.869Z,0.30
2023-09-03T06:33:13.571Z,0.30
2023-09-03T06:35:40.733Z,0.30
2023-09-03T06:38:08.240Z,0.28
2023-09-03T06:40:35.167Z,0.50
2023-09-03T06:43:02.033Z,0.35
2023-09-03T06:45:28.905Z,0.35
2023-09-03T06:47:55.823Z,0.30
2023-09-03T06:50:22.798Z,0.40
2023-09-03T06:52:49.682Z,0.50
2023-09-03T06:55:19.172Z,0.60
2023-09-03T06:57:46.482Z,0.30
2023-09-03T07:00:14.018Z,0.55
2023-09-03T07:02:40.995Z,0.50
2023-09-03T07:05:08.432Z,0.57
2023-09-03T07:07:35.308Z,0.50
2023-09-03T07:10:02.537Z,0.40
2023-09-03T07:12:29.408Z,0.63
2023-09-03T07:14:56.342Z,0.32
2023-09-03T07:17:23.223Z,0.40
2023-09-03T07:19:50.118Z,0.50
2023-09-03T07:22:17.033Z,0.50
2023-09-03T07:24:43.905Z,0.30
2023-09-03T07:27:10.832Z,0.32
2023-09-03T07:29:37.804Z,0.60
2023-09-03T07:32:04.967Z,0.43
2023-09-03T07:34:31.946Z,0.40
2023-09-03T07:36:58.855Z,0.40
2023-09-03T07:39:25.840Z,0.40
2023-09-03T07:41:52.750Z,0.30
2023-09-03T07:44:19.593Z,0.45
2023-09-03T07:46:46.556Z,0.50
2023-09-03T07:49:13.420Z,0.40
2023-09-03T07:51:40.336Z,0.30
2023-09-03T07:54:07.248Z,0.40
2023-09-03T07:56:34.130Z,0.20
2023-09-03T07:59:01.074Z,0.30
2023-09-03T08:01:27.985Z,0.47
2023-09-03T08:03:54.925Z,0.38
2023-09-03T08:06:21.859Z,0.30
2023-09-03T08:08:48.695Z,0.40
2023-09-03T08:11:15.535Z,0.40
2023-09-03T08:13:42.427Z,0.57
2023-09-03T08:16:09.316Z,0.40
2023-09-03T08:18:36.183Z,0.40
2023-09-03T08:21:03.108Z,0.30
2023-09-03T08:23:30.009Z,0.30
2023-09-03T08:25:56.870Z,0.30
2023-09-03T08:28:23.794Z,0.40
2023-09-03T08:30:50.743Z,0.40
2023-09-03T08:33:17.691Z,0.30
2023-09-03T08:35:45.504Z,0.40
2023-09-03T08:38:12.359Z,0.30
2023-09-03T08:40:39.192Z,0.40
2023-09-03T08:43:07.064Z,0.50
2023-09-03T08:45:38.861Z,0.35
2023-09-03T08:48:06.104Z,0.90
2023-09-03T08:50:33.613Z,0.22
2023-09-03T08:53:01.666Z,0.40
2023-09-03T08:55:29.358Z,0.40
2023-09-03T08:57:56.736Z,0.35
2023-09-03T09:00:24.370Z,0.30
2023-09-03T09:02:53.402Z,0.40
2023-09-03T09:05:23.423Z,0.38
2023-09-03T09:07:50.722Z,0.20
2023-09-03T09:10:29.412Z,0.30
2023-09-03T09:13:12.583Z,0.32
2023-09-03T09:15:39.627Z,0.38
2023-09-03T09:18:12.345Z,0.40
2023-09-03T09:20:41.125Z,0.40
2023-09-03T09:23:08.849Z,0.43
2023-09-03T09:25:36.950Z,0.30
2023-09-03T09:28:12.677Z,0.73
2023-09-03T09:30:56.642Z,0.47
2023-09-03T09:33:24.849Z,0.50
2023-09-03T09:35:52.227Z,0.50
2023-09-03T09:38:19.812Z,0.68
2023-09-03T09:40:46.946Z,0.70
2023-09-03T09:43:13.841Z,0.60
2023-09-03T09:45:51.281Z,0.80
2023-09-03T09:48:18.523Z,0.70
2023-09-03T09:50:47.757Z,0.70
2023-09-03T09:53:28.562Z,0.80
2023-09-03T09:55:59.871Z,0.80
2023-09-03T09:58:40.476Z,0.80
2023-09-03T10:01:08.585Z,0.52
2023-09-03T10:03:49.038Z,0.60
2023-09-03T10:06:17.963Z,0.75
2023-09-03T10:08:48.192Z,0.77
2023-09-03T10:11:18.070Z,0.70
2023-09-03T10:13:45.457Z,0.90
2023-09-03T10:16:12.940Z,0.60
2023-09-03T10:18:46.129Z,0.50
2023-09-03T10:21:14.944Z,0.50
2023-09-03T10:23:48.276Z,0.60
2023-09-03T10:26:21.082Z,0.30
2023-09-03T10:28:51.489Z,0.40
2023-09-03T10:31:20.009Z,0.20
2023-09-03T10:33:47.075Z,0.28
2023-09-03T10:36:16.278Z,0.40
2023-09-03T10:38:44.095Z,0.20
2023-09-03T10:41:24.093Z,0.47
2023-09-03T10:43:55.519Z,0.43
2023-09-03T10:46:23.857Z,0.40
2023-09-03T10:48:55.574Z,0.30
2023-09-03T10:51:39.231Z,0.20
2023-09-03T10:54:17.113Z,0.20
2023-09-03T10:57:05.923Z,0.28
2023-09-03T11:00:00.493Z,0.20
2023-09-03T11:02:29.958Z,0.20
2023-09-03T11:05:18.396Z,0.10
2023-09-03T11:07:46.712Z,0.30
2023-09-03T11:10:23.247Z,0.93
2023-09-03T11:12:50.459Z,0.20
2023-09-03T11:15:17.558Z,0.33
2023-09-03T11:17:56.105Z,0.20
2023-09-03T11:20:48.275Z,0.35
2023-09-03T11:23:18.726Z,0.30
2023-09-03T11:25:46.751Z,0.15
2023-09-03T11:28:14.497Z,0.20
2023-09-03T11:30:42.760Z,0.20
2023-09-03T11:33:22.805Z,0.30
2023-09-03T11:35:50.430Z,0.15
2023-09-03T11:38:18.072Z,0.32
2023-09-03T11:40:45.365Z,0.70
2023-09-03T11:43:13.064Z,0.63
2023-09-03T11:45:40.414Z,0.20
2023-09-03T11:48:07.755Z,0.30
2023-09-03T11:50:35.145Z,0.43
2023-09-03T11:53:02.441Z,0.40
2023-09-03T11:55:44.256Z,0.47
2023-09-03T11:58:16.751Z,0.47
2023-09-03T12:00:44.692Z,0.30
2023-09-03T12:03:12.171Z,0.40
2023-09-03T12:05:39.444Z,0.30
2023-09-03T12:08:07.161Z,0.40
2023-09-03T12:10:34.570Z,0.20
2023-09-03T12:13:01.511Z,0.20
2023-09-03T12:15:28.758Z,0.30
2023-09-03T12:18:06.365Z,0.37
2023-09-03T12:20:41.575Z,0.20
2023-09-03T12:23:09.942Z,0.30
2023-09-03T12:25:37.813Z,0.40
2023-09-03T12:28:06.071Z,0.30
2023-09-03T12:30:59.894Z,0.40
2023-09-03T12:33:43.884Z,0.50
2023-09-03T12:36:16.378Z,0.30
2023-09-03T12:39:03.046Z,0.30
2023-09-03T12:41:32.540Z,0.30
2023-09-03T12:44:10.476Z,0.20
2023-09-03T12:46:38.657Z,0.30
2023-09-03T12:49:06.442Z,0.20
2023-09-03T12:51:33.965Z,0.35
2023-09-03T12:54:01.453Z,0.20
2023-09-03T12:56:28.942Z,0.23
2023-09-03T12:58:56.332Z,0.47
2023-09-03T13:01:24.107Z,0.20
2023-09-03T13:03:52.063Z,0.20
2023-09-03T13:06:19.383Z,0.20
2023-09-03T13:08:47.196Z,0.30
2023-09-03T13:11:14.865Z,0.50
2023-09-03T13:13:42.502Z,0.22
2023-09-03T13:16:10.154Z,0.22
2023-09-03T13:18:39.211Z,0.25
2023-09-03T13:21:06.862Z,0.30
2023-09-03T13:23:34.554Z,0.43
2023-09-03T13:26:03.725Z,0.10
2023-09-03T13:28:32.014Z,0.20
2023-09-03T13:31:07.921Z,0.30
2023-09-03T13:33:37.310Z,0.27
2023-09-03T13:36:05.092Z,0.10
2023-09-03T13:38:32.751Z,0.10
2023-09-03T13:41:00.462Z,0.32
2023-09-03T13:43:30.249Z,0.17
2023-09-03T13:45:59.949Z,0.40
2023-09-03T13:48:28.224Z,0.20
2023-09-03T13:50:55.688Z,0.10
2023-09-03T13:53:28.392Z,0.10
2023-09-03T13:56:04.256Z,0.17
2023-09-03T13:58:32.073Z,0.30
2023-09-03T14:00:59.643Z,0.10
2023-09-03T14:03:26.962Z,0.10
2023-09-03T14:06:12.620Z,0.20
2023-09-03T14:08:39.870Z,0.20
2023-09-03T14:11:07.329Z,0.37
2023-09-03T14:13:34.768Z,0.20
2023-09-03T14:16:02.222Z,0.10
2023-09-03T14:18:30.050Z,0.10
2023-09-03T14:20:58.608Z,0.30
2023-09-03T14:23:26.640Z,0.77
2023-09-03T14:25:53.838Z,0.57
2023-09-03T14:28:21.700Z,0.30
2023-09-03T14:30:49.637Z,0.28
2023-09-03T14:33:20.901Z,0.15
2023-09-03T14:35:50.269Z,0.20
2023-09-03T14:38:18.182Z,0.13
2023-09-03T14:40:53.350Z,0.20
2023-09-03T14:43:20.804Z,0.10
2023-09-03T14:45:48.135Z,0.20
2023-09-03T14:48:16.158Z,0.20
2023-09-03T14:50:43.741Z,0.20
2023-09-03T14:53:11.014Z,0.28
2023-09-03T14:55:45.201Z,0.20
2023-09-03T14:58:13.361Z,0.20
2023-09-03T15:00:40.774Z,0.23
2023-09-03T15:03:08.606Z,0.20
2023-09-03T15:05:37.489Z,0.20
2023-09-03T15:08:05.180Z,0.30
2023-09-03T15:10:32.387Z,0.20
2023-09-03T15:12:59.681Z,0.43
2023-09-03T15:15:27.349Z,0.30
2023-09-03T15:17:54.449Z,0.35
2023-09-03T15:20:21.696Z,0.25
2023-09-03T15:22:48.997Z,0.30
2023-09-03T15:25:17.888Z,0.20
2023-09-03T15:27:45.010Z,0.20
2023-09-03T15:30:12.694Z,0.32
2023-09-03T15:32:40.446Z,0.30
2023-09-03T15:35:08.287Z,0.20
2023-09-03T15:37:35.880Z,0.20
2023-09-03T15:40:03.643Z,0.28
2023-09-03T15:42:30.849Z,0.32
2023-09-03T15:44:58.259Z,0.30
2023-09-03T15:47:25.549Z,0.20
2023-09-03T15:49:52.911Z,0.30
2023-09-03T15:52:20.457Z,0.38
2023-09-03T15:54:47.955Z,0.28
2023-09-03T15:57:15.762Z,0.40
2023-09-03T15:59:44.904Z,0.40
2023-09-03T16:02:15.672Z,0.30
2023-09-03T16:04:43.145Z,0.28
2023-09-03T16:07:10.273Z,0.30
2023-09-03T16:09:37.766Z,0.38
2023-09-03T16:12:05.444Z,0.30
2023-09-03T16:14:32.809Z,0.33
2023-09-03T16:17:00.689Z,0.30
2023-09-03T16:19:28.345Z,0.20
2023-09-03T16:21:55.974Z,0.20
2023-09-03T16:24:23.150Z,0.30
2023-09-03T16:26:52.056Z,0.33
2023-09-03T16:29:19.498Z,0.38
2023-09-03T16:31:47.085Z,0.28
2023-09-03T16:34:14.575Z,0.50
2023-09-03T16:36:42.094Z,0.30
2023-09-03T16:39:09.848Z,0.27
2023-09-03T16:41:37.514Z,0.30
2023-09-03T16:44:05.415Z,0.43
2023-09-03T16:46:33.432Z,0.30
2023-09-03T16:49:01.366Z,0.40
2023-09-03T16:51:31.377Z,0.30
2023-09-03T16:53:59.056Z,0.68
2023-09-03T16:56:26.718Z,0.52
2023-09-03T16:58:54.304Z,0.40
2023-09-03T17:01:21.719Z,0.60
2023-09-03T17:03:50.593Z,0.60
2023-09-03T17:06:20.880Z,0.30
2023-09-03T17:08:48.313Z,0.40
2023-09-03T17:11:15.546Z,0.55
2023-09-03T17:13:43.759Z,0.50
2023-09-03T17:16:17.993Z,0.30
2023-09-03T17:18:45.799Z,0.35
2023-09-03T17:21:13.808Z,0.50
2023-09-03T17:23:41.454Z,0.40
2023-09-03T17:26:23.597Z,0.32
2023-09-03T17:28:55.388Z,0.50
2023-09-03T17:31:22.947Z,0.40
2023-09-03T17:33:51.884Z,0.98
2023-09-03T17:36:21.549Z,1.10
2023-09-03T17:38:49.158Z,0.70
2023-09-03T17:41:17.278Z,0.50
2023-09-03T17:43:44.601Z,1.20
2023-09-03T17:46:11.922Z,0.90
2023-09-03T17:48:39.788Z,1.00
2023-09-03T17:51:08.537Z,0.52
2023-09-03T17:53:36.536Z,0.77
2023-09-03T17:56:04.623Z,0.70
2023-09-03T17:58:32.407Z,1.20
2023-09-03T18:01:00.260Z,0.90
2023-09-03T18:03:28.102Z,1.02
2023-09-03T18:05:55.994Z,0.80
2023-09-03T18:08:24.533Z,0.80
2023-09-03T18:10:52.695Z,0.85
2023-09-03T18:13:21.855Z,0.90
2023-09-03T18:15:57.954Z,0.90
2023-09-03T18:18:26.384Z,1.00
2023-09-03T18:20:54.124Z,0.90
2023-09-03T18:23:27.699Z,1.20
2023-09-03T18:25:55.809Z,1.10
2023-09-03T18:28:23.580Z,1.10
2023-09-03T18:33:43.982Z,0.88
2023-09-03T18:36:12.356Z,0.95
2023-09-03T18:38:40.839Z,1.40
2023-09-03T18:41:11.816Z,1.17
2023-09-03T18:43:40.211Z,1.20
2023-09-03T18:46:08.537Z,0.90
2023-09-03T18:48:36.161Z,1.10
2023-09-03T18:51:05.738Z,1.02
2023-09-03T18:53:35.344Z,1.05
2023-09-03T18:56:05.156Z,1.00
2023-09-03T18:58:34.044Z,1.00
2023-09-03T19:01:06.180Z,1.13
2023-09-03T19:03:35.146Z,1.23
2023-09-03T19:06:05.143Z,1.45
2023-09-03T19:08:35.569Z,1.00
2023-09-03T19:11:03.453Z,1.25
2023-09-03T19:13:31.496Z,1.15
2023-09-03T19:15:58.751Z,1.33
2023-09-03T19:18:28.773Z,1.10
2023-09-03T19:20:58.072Z,0.97
2023-09-03T19:23:26.235Z,1.15
2023-09-03T19:25:53.933Z,1.30
2023-09-03T19:28:22.735Z,1.08
2023-09-03T19:30:53.039Z,1.20
2023-09-03T19:33:21.613Z,1.07
2023-09-03T19:35:51.127Z,1.00
2023-09-03T19:38:19.261Z,0.98
2023-09-03T19:40:47.777Z,0.80
2023-09-03T19:43:15.388Z,1.00
2023-09-03T19:45:52.397Z,0.90
2023-09-03T19:48:25.351Z,1.00
2023-09-03T19:50:54.048Z,0.90
2023-09-03T19:53:21.717Z,1.00
2023-09-03T19:55:52.394Z,1.23
2023-09-03T19:58:21.280Z,1.10
2023-09-03T20:00:49.203Z,1.00
2023-09-03T20:03:17.214Z,1.20
2023-09-03T20:05:44.286Z,0.93
2023-09-03T20:08:12.054Z,1.17
2023-09-03T20:10:40.235Z,1.00
2023-09-03T20:13:07.592Z,1.10
2023-09-03T20:15:35.191Z,1.08
2023-09-03T20:18:03.116Z,0.98
2023-09-03T20:20:32.109Z,1.30
2023-09-03T20:23:00.945Z,1.00
2023-09-03T20:25:28.839Z,1.10
2023-09-03T20:27:58.181Z,1.10
2023-09-03T20:30:25.600Z,1.30
2023-09-03T20:32:53.180Z,0.95
2023-09-03T20:35:20.706Z,1.20
2023-09-03T20:37:48.123Z,1.13
2023-09-03T20:40:15.490Z,1.10
2023-09-03T20:42:42.608Z,1.27
2023-09-03T20:45:10.514Z,1.38
2023-09-03T20:47:38.616Z,1.07
2023-09-03T20:50:06.458Z,0.90
2023-09-03T20:52:33.424Z,1.02
2023-09-03T20:55:00.319Z,1.20
2023-09-03T20:57:27.656Z,1.10
2023-09-03T20:59:55.160Z,1.50
2023-09-03T21:02:22.729Z,1.17
2023-09-03T21:04:49.925Z,1.40
2023-09-03T21:07:16.880Z,1.60
2023-09-03T21:09:43.704Z,1.30
2023-09-03T21:12:10.608Z,1.33
2023-09-03T21:14:37.418Z,1.48
2023-09-03T21:17:04.468Z,1.45
2023-09-03T21:19:31.262Z,1.60
2023-09-03T21:21:58.084Z,1.40
2023-09-03T21:24:24.926Z,1.50
2023-09-03T21:26:52.028Z,1.27
2023-09-03T21:29:18.888Z,1.42
2023-09-03T21:31:46.028Z,1.23
2023-09-03T21:34:12.939Z,1.73
2023-09-03T21:36:39.839Z,1.40
2023-09-03T21:39:06.708Z,1.55
2023-09-03T21:41:33.630Z,1.23
2023-09-03T21:44:17.786Z,1.48
2023-09-03T21:46:45.744Z,1.15
2023-09-03T21:49:12.606Z,1.50
2023-09-03T21:51:39.492Z,1.25
2023-09-03T21:54:06.465Z,1.35
2023-09-03T21:56:33.317Z,1.50
2023-09-03T21:59:00.138Z,1.50
2023-09-03T22:01:27.029Z,1.30
2023-09-03T22:03:53.927Z,1.17
2023-09-03T22:06:20.984Z,1.20
2023-09-03T22:08:47.847Z,1.27
2023-09-03T22:11:15.031Z,1.70
2023-09-03T22:13:41.909Z,1.30
2023-09-03T22:16:08.893Z,1.40
2023-09-03T22:18:46.202Z,0.95
2023-09-03T22:21:21.230Z,1.30
2023-09-03T22:23:48.054Z,1.20
2023-09-03T22:26:16.391Z,1.50
2023-09-03T22:28:43.278Z,1.30
2023-09-03T22:31:10.154Z,1.40
2023-09-03T22:33:37.059Z,1.25
2023-09-03T22:36:04.205Z,1.17
2023-09-03T22:38:31.070Z,1.70
2023-09-03T22:40:57.909Z,1.20
2023-09-03T22:43:24.779Z,1.50
2023-09-03T22:45:51.586Z,1.50
2023-09-03T22:48:18.546Z,1.25
2023-09-03T22:50:45.352Z,1.40
2023-09-03T22:53:12.218Z,1.30
2023-09-03T22:55:39.047Z,1.50
2023-09-03T22:58:05.892Z,1.30
2023-09-03T23:00:32.700Z,1.40
2023-09-03T23:02:59.614Z,1.27
2023-09-03T23:05:26.465Z,1.50
2023-09-03T23:07:53.385Z,1.60
2023-09-03T23:10:20.242Z,1.40
2023-09-03T23:12:47.183Z,1.60
2023-09-03T23:15:14.003Z,1.57
2023-09-03T23:17:40.876Z,1.30
2023-09-03T23:20:08.263Z,1.48
2023-09-03T23:22:35.157Z,1.35
2023-09-03T23:25:02.004Z,1.13
2023-09-03T23:27:28.903Z,1.37
2023-09-03T23:29:55.698Z,1.20
2023-09-03T23:32:22.628Z,1.48
2023-09-03T23:34:49.548Z,1.35
2023-09-03T23:37:16.379Z,1.42
2023-09-03T23:39:43.188Z,1.20
2023-09-03T23:42:10.045Z,1.35
2023-09-03T23:44:36.880Z,1.58
2023-09-03T23:47:13.380Z,1.50
2023-09-03T23:49:41.380Z,1.40
2023-09-03T23:52:08.289Z,1.20
2023-09-03T23:54:35.295Z,1.33
2023-09-03T23:57:02.206Z,1.77
2023-09-03T23:59:29.021Z,1.40
